Peoria Heights, Illinois
Current Conditions -  °F | °C
As of 7:54 PM on Friday 19 Dec 2014 (Local Time) from KPIA Reporting Station
Overcast Overcast  
Wind Chill: 25°   Ceiling: 5000
Heat Index: 30°   Visibility: 10mi
Dew Point: 21°   Wind: 5mph
Humidity: 69%   Direction: 80°E
Pressure: 30.28"   Gusts: NA
Location:  40.7452°N, 89.5738°W
Report Text: KPIA 200154Z 08004KT 10SM OVC050 M01/M06 A3028 RMK AO2 SLP262 T10111061
Loading
Personal Weather Stations






























Interactive Weather Map New forecast layout! Learn more

10-Day Weather Forecast

Advertisements
Track Severe Weather on mobile